Time;durP1;ratioP1;P1;durP2;ratioP2;P2;SDS_P1;SDS_P2;PMS_P1;PMS_P2;Temp;Humidity;BMP_temperature;BMP_pressure;BME280_temperature;BME280_humidity;BME280_pressure;Samples;Min_cycle;Max_cycle;Signal;HPM_P1;HPM_P2
2022/10/05 00:00:15;;;;;;;6.03;1.80;;;;;;;-145.69;100.00;72530.81;5073753;28;20208;-79
2022/10/05 00:02:43;;;;;;;3.00;1.90;;;;;;;-145.69;100.00;72528.81;5061358;28;20673;-79
2022/10/05 00:05:30;;;;;;;3.97;2.03;;;;;;;-145.69;100.00;72524.84;5053767;28;20214;-80
2022/10/05 00:08:04;;;;;;;2.20;1.73;;;;;;;-145.69;100.00;72528.81;5050594;28;20242;-78
2022/10/05 00:10:31;;;;;;;5.13;1.90;;;;;;;-145.69;100.00;72520.84;5054018;28;20656;-79
2022/10/05 00:12:57;;;;;;;2.90;2.07;;;;;;;-145.69;100.00;72524.84;5066747;28;20235;-79
2022/10/05 00:15:25;;;;;;;2.67;2.07;;;;;;;-145.69;100.00;72512.91;5073324;28;20226;-79
2022/10/05 00:17:52;;;;;;;2.43;1.90;;;;;;;-145.69;100.00;72512.91;5073576;28;20202;-79
2022/10/05 00:20:23;;;;;;;4.03;1.97;;;;;;;-145.69;100.00;72514.88;5073511;28;20209;-79
2022/10/05 00:22:55;;;;;;;3.97;2.43;;;;;;;-145.69;100.00;72506.91;5060893;28;20206;-79
2022/10/05 00:25:22;;;;;;;6.17;2.10;;;;;;;-145.69;100.00;72494.97;5053441;28;20206;-79
2022/10/05 00:27:53;;;;;;;4.60;2.13;;;;;;;-145.69;100.00;72494.97;5053314;28;20278;-79
2022/10/05 00:30:21;;;;;;;8.20;1.83;;;;;;;-145.69;100.00;72481.03;5053590;28;20204;-78
2022/10/05 00:32:50;;;;;;;3.00;2.40;;;;;;;-145.69;100.00;72481.03;5064427;28;20203;-79
2022/10/05 00:35:18;;;;;;;2.17;1.80;;;;;;;-145.69;100.00;72473.09;5073195;28;20595;-79
2022/10/05 00:37:45;;;;;;;4.67;1.80;;;;;;;-145.69;100.00;72469.09;5073068;28;20203;-79
2022/10/05 00:40:24;;;;;;;3.43;2.13;;;;;;;-145.69;100.00;72451.19;5073080;28;20210;-79
2022/10/05 00:43:02;;;;;;;5.80;2.20;;;;;;;-145.69;100.00;72435.28;5061135;28;20203;-79
2022/10/05 00:45:35;;;;;;;2.43;1.90;;;;;;;-145.69;100.00;72437.25;5053238;28;20225;-79
2022/10/05 00:48:14;;;;;;;7.43;2.00;;;;;;;-145.69;100.00;72433.28;5052868;28;20553;-79
2022/10/05 00:50:52;;;;;;;2.88;2.00;;;;;;;-145.69;100.00;72441.25;5045328;28;20795;-79
2022/10/05 00:53:32;;;;;;;3.13;2.30;;;;;;;-145.69;100.00;72427.31;5064264;28;20199;-79
2022/10/05 00:56:04;;;;;;;3.40;2.13;;;;;;;-145.69;100.00;72421.34;5072789;28;20226;-78
2022/10/05 00:58:44;;;;;;;6.47;2.10;;;;;;;-145.69;100.00;72409.38;5072999;28;20622;-79
2022/10/05 01:01:13;;;;;;;5.30;2.30;;;;;;;-145.69;100.00;72407.41;5072713;28;20206;-79
2022/10/05 01:03:55;;;;;;;4.87;2.13;;;;;;;-145.69;100.00;72387.50;5054412;28;20211;-79
2022/10/05 01:06:31;;;;;;;4.47;2.50;;;;;;;-145.69;100.00;72373.56;5053011;28;20196;-79
2022/10/05 01:09:06;;;;;;;4.63;2.10;;;;;;;-145.69;100.00;72383.53;5052684;28;20206;-78
2022/10/05 01:11:40;;;;;;;4.93;2.20;;;;;;;-145.69;100.00;72385.50;5052618;28;20203;-78
2022/10/05 01:14:14;;;;;;;4.50;2.30;;;;;;;-145.69;100.00;72387.50;5072733;28;20241;-79
2022/10/05 02:17:06;;;;;;;3.23;1.63;;;;;;;-145.69;100.00;72293.94;3878145;28;20365;-78
2022/10/05 02:19:38;;;;;;;7.40;2.30;;;;;;;-145.69;100.00;72289.97;5036458;28;20577;-78
2022/10/05 02:22:08;;;;;;;7.93;2.43;;;;;;;-145.69;100.00;72276.03;5045193;28;20285;-78
2022/10/05 02:24:39;;;;;;;4.30;2.23;;;;;;;-145.69;100.00;72278.03;5075647;28;20209;-78
2022/10/05 02:27:09;;;;;;;2.50;1.87;;;;;;;-145.69;100.00;72280.03;5075712;28;20225;-78
2022/10/05 02:29:39;;;;;;;5.30;2.53;;;;;;;-145.69;100.00;72280.03;5075860;28;20209;-77
2022/10/05 02:32:14;;;;;;;2.70;1.83;;;;;;;-145.69;100.00;72287.97;5070989;28;20192;-78
2022/10/05 02:34:41;;;;;;;5.27;2.10;;;;;;;-145.69;100.00;72254.16;5055473;28;20219;-78
2022/10/05 02:37:21;;;;;;;6.67;2.30;;;;;;;-145.69;100.00;72270.06;5055427;28;20203;-78
2022/10/05 02:40:03;;;;;;;4.57;2.07;;;;;;;-145.69;100.00;72278.03;5055681;28;20200;-78
2022/10/05 02:42:37;;;;;;;5.57;2.10;;;;;;;-145.69;100.00;72268.06;5062851;28;20195;-78
2022/10/05 02:45:14;;;;;;;4.80;2.17;;;;;;;-145.69;100.00;72270.06;5075416;28;20206;-78
2022/10/05 02:47:50;;;;;;;3.17;2.20;;;;;;;-145.69;100.00;72258.13;5075246;28;20541;-78
2022/10/05 02:50:26;;;;;;;5.70;2.60;;;;;;;-145.69;100.00;72268.06;5037618;28;20196;-78
2022/10/05 02:53:04;;;;;;;4.10;2.20;;;;;;;-145.69;100.00;72299.91;5056136;28;20316;-78
2022/10/05 02:55:39;;;;;;;2.73;2.10;;;;;;;-145.69;100.00;72313.84;5074534;28;20222;-78
2022/10/05 02:58:13;;;;;;;2.80;2.17;;;;;;;-145.69;100.00;72311.88;5074979;28;20198;-78
2022/10/05 03:00:48;;;;;;;3.90;2.60;;;;;;;-145.69;100.00;72323.81;5075155;28;20209;-79
2022/10/05 03:03:26;;;;;;;5.07;2.10;;;;;;;-145.69;100.00;72317.84;5061768;28;20272;-78
2022/10/05 03:05:58;;;;;;;3.20;2.47;;;;;;;-145.69;100.00;72313.84;5054947;28;20206;-77
2022/10/05 03:08:32;;;;;;;4.07;2.50;;;;;;;-145.69;100.00;72297.94;5054855;28;20203;-78
2022/10/05 03:11:08;;;;;;;3.33;2.60;;;;;;;-145.69;100.00;72301.91;5054988;28;20542;-78
2022/10/05 03:13:45;;;;;;;3.83;2.27;;;;;;;-145.69;100.00;72313.84;5070009;28;20533;-78
2022/10/05 03:16:26;;;;;;;5.60;2.50;;;;;;;-145.69;100.00;72289.97;5074669;28;20687;-78
2022/10/05 03:19:09;;;;;;;4.73;2.80;;;;;;;-145.69;100.00;72270.06;5074482;28;20199;-78
2022/10/05 03:21:51;;;;;;;5.13;2.83;;;;;;;-145.69;100.00;72268.06;5074856;28;20206;-79
2022/10/05 03:24:36;;;;;;;3.33;2.33;;;;;;;-145.69;100.00;72266.09;5034671;28;20200;-78
2022/10/05 03:27:10;;;;;;;4.53;2.83;;;;;;;-145.69;100.00;72270.06;5034619;28;20557;-78
2022/10/05 03:29:43;;;;;;;5.03;3.20;;;;;;;-145.69;100.00;72278.03;5034395;28;20204;-78
2022/10/05 03:32:22;;;;;;;4.60;2.77;;;;;;;-145.69;100.00;72291.97;5041284;28;20190;-78
2022/10/05 03:34:57;;;;;;;6.13;2.93;;;;;;;-145.69;100.00;72278.03;5074389;28;20226;-78
2022/10/05 03:37:29;;;;;;;5.03;3.63;;;;;;;-145.69;100.00;72274.06;5074418;28;20238;-78
2022/10/05 03:40:07;;;;;;;5.80;3.50;;;;;;;-145.69;100.00;72270.06;5074364;28;20203;-77
2022/10/05 03:42:46;;;;;;;6.27;3.20;;;;;;;-145.69;100.00;72270.06;5067900;28;20191;-78
2022/10/05 03:45:23;;;;;;;4.07;2.60;;;;;;;-145.69;100.00;72289.97;5054196;28;20206;-79
2022/10/05 03:47:55;;;;;;;6.27;2.90;;;;;;;-145.69;100.00;72282.00;5054138;28;20202;-78
2022/10/05 03:50:33;;;;;;;3.63;3.03;;;;;;;-145.69;100.00;72303.91;5054062;28;20203;-78
2022/10/05 03:53:04;;;;;;;5.70;3.33;;;;;;;-145.69;100.00;72321.81;5066370;28;20549;-78
2022/10/05 03:55:36;;;;;;;6.83;3.30;;;;;;;-145.69;100.00;72327.78;5074067;28;20321;-76
2022/10/05 03:58:09;;;;;;;4.13;3.20;;;;;;;-145.69;100.00;72327.78;5073933;28;20199;-77
2022/10/05 04:00:38;;;;;;;4.77;3.03;;;;;;;-145.69;100.00;72317.84;5073689;28;20619;-77
2022/10/05 04:03:12;;;;;;;9.40;3.00;;;;;;;-145.69;100.00;72333.75;5061130;28;20200;-77
2022/10/05 04:05:46;;;;;;;4.60;2.97;;;;;;;-145.69;100.00;72329.78;5054092;28;20199;-77
2022/10/05 04:08:22;;;;;;;5.70;3.03;;;;;;;-145.69;100.00;72315.84;5053875;28;20198;-77
2022/10/05 04:10:52;;;;;;;7.33;2.90;;;;;;;-145.69;100.00;72297.94;5053749;28;20557;-77
2022/10/05 04:13:23;;;;;;;7.03;3.43;;;;;;;-145.69;100.00;72301.91;5067230;28;20198;-77
2022/10/05 04:15:57;;;;;;;4.33;2.60;;;;;;;-145.69;100.00;72317.84;5073753;28;20226;-77
2022/10/05 04:18:27;;;;;;;7.77;3.40;;;;;;;-145.69;100.00;72333.75;5073326;28;20257;-77
2022/10/05 04:21:00;;;;;;;4.80;3.20;;;;;;;-145.69;100.00;72327.78;5073361;28;20206;-77
2022/10/05 04:23:38;;;;;;;8.00;3.57;;;;;;;-145.69;100.00;72317.84;5057308;28;20676;-77
2022/10/05 04:26:10;;;;;;;7.03;4.13;;;;;;;-145.69;100.00;72293.94;5053663;28;20209;-77
2022/10/05 04:28:45;;;;;;;5.70;3.87;;;;;;;-145.69;100.00;72291.97;5053547;28;20200;-77
2022/10/05 04:31:21;;;;;;;11.97;4.00;;;;;;;-145.69;100.00;72301.91;5053446;28;20211;-77
2022/10/05 04:33:58;;;;;;;4.60;3.23;;;;;;;-145.69;100.00;72289.97;5053888;28;20198;-77
2022/10/05 04:36:36;;;;;;;8.13;3.67;;;;;;;-145.69;100.00;72286.00;5073193;28;20688;-77
2022/10/05 04:39:13;;;;;;;7.33;3.73;;;;;;;-145.69;100.00;72278.03;5073128;28;20198;-77
2022/10/05 04:41:50;;;;;;;5.03;3.40;;;;;;;-145.69;100.00;72278.03;5073156;28;20664;-77
2022/10/05 04:44:39;;;;;;;5.87;3.70;;;;;;;-145.69;100.00;72266.09;5073121;28;20202;-78
2022/10/05 04:47:22;;;;;;;6.07;3.57;;;;;;;-145.69;100.00;72274.06;5059197;28;20202;-77
2022/10/05 04:50:08;;;;;;;9.83;4.57;;;;;;;-145.69;100.00;72266.09;5053069;28;20348;-78
2022/10/05 04:52:43;;;;;;;7.43;4.03;;;;;;;-145.69;100.00;72282.00;5053003;28;20199;-77
2022/10/05 04:55:18;;;;;;;7.30;3.80;;;;;;;-145.69;100.00;72284.00;5052903;28;20222;-77
2022/10/05 04:57:56;;;;;;;7.27;3.40;;;;;;;-145.69;100.00;72287.97;5041152;28;20286;-78
2022/10/05 05:00:24;;;;;;;7.87;4.10;;;;;;;-145.69;100.00;72270.06;5071555;28;20669;-78
2022/10/05 05:03:15;;;;;;;7.80;4.33;;;;;;;-145.69;100.00;72256.13;5072339;28;20203;-78
2022/10/05 05:05:50;;;;;;;5.30;4.30;;;;;;;-145.69;100.00;72246.19;5073114;28;20207;-79
2022/10/05 05:08:35;;;;;;;5.23;3.97;;;;;;;-145.69;100.00;72258.13;5073027;28;20209;-78
2022/10/05 05:11:23;;;;;;;6.80;3.73;;;;;;;-145.69;100.00;72293.94;5066473;28;20202;-79
2022/10/05 05:14:15;;;;;;;6.60;3.33;;;;;;;-145.69;100.00;72299.91;5052790;28;20199;-79
2022/10/05 05:16:44;;;;;;;6.27;4.10;;;;;;;-145.69;100.00;72297.94;5052609;28;20249;-78
2022/10/05 05:19:33;;;;;;;7.63;4.17;;;;;;;-145.69;100.00;72289.97;5052806;28;20202;-78
2022/10/05 05:22:06;;;;;;;6.43;3.60;;;;;;;-145.69;100.00;72289.97;5052343;28;20570;-78
2022/10/05 05:24:42;;;;;;;5.93;4.07;;;;;;;-145.69;100.00;72287.97;5068165;28;20198;-78
2022/10/05 05:27:24;;;;;;;8.17;4.03;;;;;;;-145.69;100.00;72297.94;5072699;28;20632;-78
2022/10/05 05:30:01;;;;;;;13.77;3.90;;;;;;;-145.69;100.00;72301.91;5072595;28;20649;-78
2022/10/05 05:32:38;;;;;;;7.23;4.33;;;;;;;-145.69;100.00;72301.91;5072901;28;20190;-77
2022/10/05 05:35:43;;;;;;;6.90;3.90;;;;;;;-145.69;100.00;72278.03;5067896;28;20195;-78
2022/10/05 05:38:23;;;;;;;11.80;5.00;;;;;;;-145.69;100.00;72293.94;5056545;28;20206;-78
2022/10/05 05:40:59;;;;;;;6.67;4.07;;;;;;;-145.69;100.00;72305.91;5056327;28;20199;-78
2022/10/05 05:43:34;;;;;;;7.93;3.57;;;;;;;-145.69;100.00;72301.91;5056378;28;20673;-78
2022/10/05 05:46:08;;;;;;;9.10;3.93;;;;;;;-145.69;100.00;72297.94;5056399;28;20206;-78
2022/10/05 05:48:40;;;;;;;5.27;3.83;;;;;;;-145.69;100.00;72293.94;5036494;28;20222;-78
2022/10/05 05:51:11;;;;;;;9.03;4.20;;;;;;;-145.69;100.00;72295.94;5036003;28;20196;-77
2022/10/05 05:53:42;;;;;;;6.13;3.80;;;;;;;-145.69;100.00;72301.91;5036625;28;20200;-78
2022/10/05 05:56:12;;;;;;;6.87;3.83;;;;;;;-145.69;100.00;72287.97;5036296;28;20689;-78
2022/10/05 05:58:48;;;;;;;6.60;3.80;;;;;;;-145.69;100.00;72270.06;5049652;28;20286;-78
2022/10/05 06:01:23;;;;;;;6.87;3.80;;;;;;;-145.69;100.00;72254.16;5075965;28;20248;-77
2022/10/05 06:03:52;;;;;;;4.87;3.50;;;;;;;-145.69;100.00;72254.16;5075879;28;20202;-78
2022/10/05 06:06:24;;;;;;;6.33;3.23;;;;;;;-145.69;100.00;72258.13;5076070;28;20233;-78
2022/10/05 06:08:55;;;;;;;6.63;3.80;;;;;;;-145.69;100.00;72242.22;5075985;28;20289;-80
2022/10/05 06:11:28;;;;;;;4.57;3.10;;;;;;;-145.69;100.00;72274.06;5063858;28;20249;-79
2022/10/05 06:13:59;;;;;;;9.33;3.03;;;;;;;-145.69;100.00;72315.84;5055902;28;20290;-79
2022/10/05 06:16:31;;;;;;;4.17;2.67;;;;;;;-145.69;100.00;72287.97;5055596;28;20222;-79
2022/10/05 06:19:02;;;;;;;4.70;3.20;;;;;;;-145.69;100.00;72284.00;5056036;28;20572;-79
2022/10/05 06:21:34;;;;;;;3.90;2.67;;;;;;;-145.69;100.00;72295.94;5055640;28;20203;-80
2022/10/05 06:24:05;;;;;;;6.40;3.43;;;;;;;-145.69;100.00;72287.97;5070909;28;20286;-79
2022/10/05 06:26:56;;;;;;;5.60;3.70;;;;;;;-145.69;100.00;72274.06;5075395;28;20289;-79
2022/10/05 06:29:26;;;;;;;6.83;3.60;;;;;;;-145.69;100.00;72232.25;5075240;28;20560;-79
2022/10/05 06:32:05;;;;;;;15.73;4.70;;;;;;;-145.69;100.00;72232.25;5075536;28;20669;-79
2022/10/05 06:34:56;;;;;;;7.53;3.50;;;;;;;-145.69;100.00;72204.38;5074279;28;20645;-79
2022/10/05 06:37:33;;;;;;;4.63;3.30;;;;;;;-145.69;100.00;72222.31;5055442;28;20697;-80
2022/10/05 06:40:10;;;;;;;11.63;3.60;;;;;;;-145.69;100.00;72216.34;5055270;28;20541;-79
2022/10/05 06:42:49;;;;;;;8.10;3.43;;;;;;;-145.69;100.00;72220.31;5055422;28;20241;-80
2022/10/05 06:45:26;;;;;;;5.67;3.03;;;;;;;-145.69;100.00;72210.38;5055070;28;20207;-79
2022/10/05 06:48:00;;;;;;;4.43;3.37;;;;;;;-145.69;100.00;72216.34;5066049;28;20205;-80
2022/10/05 06:50:36;;;;;;;6.23;3.10;;;;;;;-145.69;100.00;72206.38;5075503;28;20209;-79
2022/10/05 06:53:20;;;;;;;4.53;2.97;;;;;;;-145.69;100.00;72186.47;5075248;28;20199;-79
2022/10/05 06:55:55;;;;;;;4.37;3.10;;;;;;;-145.69;100.00;72166.56;5074702;28;20711;-79
2022/10/05 06:58:44;;;;;;;4.50;2.87;;;;;;;-145.69;100.00;72154.63;5073819;28;20206;-80
2022/10/05 07:01:18;;;;;;;7.67;2.60;;;;;;;-145.69;100.00;72146.69;5054633;28;20205;-80
2022/10/05 07:04:09;;;;;;;8.40;2.97;;;;;;;-145.69;100.00;72126.78;5035212;28;20234;-79
2022/10/05 07:06:40;;;;;;;2.97;2.50;;;;;;;-145.69;100.00;72098.91;5035078;28;20208;-79
2022/10/05 07:09:21;;;;;;;7.43;2.57;;;;;;;-145.69;100.00;72110.84;5034872;28;20551;-79
2022/10/05 07:12:22;;;;;;;6.00;2.60;;;;;;;-145.69;100.00;72090.94;5056733;28;20195;-79
2022/10/05 07:15:05;;;;;;;3.80;2.57;;;;;;;-145.69;100.00;72075.03;5072630;28;20198;-80
2022/10/05 07:17:48;;;;;;;4.30;2.30;;;;;;;-145.69;100.00;72065.06;5074350;28;20245;-79
2022/10/05 07:20:19;;;;;;;3.63;2.20;;;;;;;-145.69;100.00;72055.13;5074469;28;20199;-79
2022/10/05 07:23:15;;;;;;;4.00;2.43;;;;;;;-145.69;100.00;72031.25;5070879;28;20282;-80
2022/10/05 07:25:48;;;;;;;4.05;2.13;;;;;;;-145.69;100.00;72015.31;5054749;28;20199;-79
2022/10/05 07:28:26;;;;;;;3.93;2.60;;;;;;;-145.69;100.00;71991.44;5054709;28;20645;-79
2022/10/05 07:30:58;;;;;;;4.13;2.13;;;;;;;-145.69;100.00;71967.56;5054198;28;20648;-79
2022/10/05 07:33:34;;;;;;;4.35;2.10;;;;;;;-145.69;100.00;71943.69;5054606;28;20204;-79
2022/10/05 07:39:01;;;;;;;3.55;2.30;;;;;;;-145.69;100.00;71895.91;5074305;28;20202;-79
2022/10/05 07:41:37;;;;;;;4.13;1.85;;;;;;;-145.69;100.00;71874.03;5074284;28;20264;-79
2022/10/05 07:44:12;;;;;;;2.45;2.00;;;;;;;-145.69;100.00;71844.16;5074391;28;20202;-80
2022/10/05 07:46:51;;;;;;;4.18;1.98;;;;;;;-145.69;100.00;71836.22;5074355;28;20255;-78
2022/10/05 07:49:41;;;;;;;3.20;2.28;;;;;;;-145.69;100.00;71820.28;5055565;28;20199;-79
2022/10/05 07:52:13;;;;;;;2.88;1.80;;;;;;;-145.69;100.00;71810.34;5054257;28;20199;-78
2022/10/05 07:54:50;;;;;;;3.63;1.90;;;;;;;-145.69;100.00;71792.44;5054210;28;20207;-81
2022/10/05 07:57:26;;;;;;;2.58;1.80;;;;;;;-145.69;100.00;71774.50;5053584;28;20262;-84
2022/10/05 07:59:58;;;;;;;3.92;1.95;;;;;;;-145.69;100.00;71740.69;5059071;28;20285;-84
2022/10/05 08:02:32;;;;;;;2.97;2.00;;;;;;;-145.69;100.00;71716.81;5073914;28;20221;-84
2022/10/05 08:05:03;;;;;;;2.90;1.70;;;;;;;-145.69;100.00;71706.84;5066116;28;20203;-84
2022/10/05 08:07:34;;;;;;;2.47;1.80;;;;;;;-145.69;100.00;71696.91;5054359;28;20207;-84
2022/10/05 08:10:15;;;;;;;3.50;1.77;;;;;;;-145.69;100.00;71688.94;5054042;28;20286;-84
2022/10/05 08:12:53;;;;;;;1.70;1.30;;;;;;;-145.69;100.00;71665.06;5053290;28;20200;-84
2022/10/05 08:15:23;;;;;;;2.55;1.40;;;;;;;-145.69;100.00;71649.16;5055118;28;20245;-84
2022/10/05 08:17:58;;;;;;;2.35;1.50;;;;;;;-145.69;100.00;71639.19;5053679;28;20601;-84
2022/10/05 08:20:42;;;;;;;3.00;1.40;;;;;;;-145.69;100.00;71611.34;5053773;28;20199;-84
2022/10/05 08:23:17;;;;;;;6.13;1.58;;;;;;;-145.69;100.00;71589.44;5053508;28;20199;-84
2022/10/05 08:25:52;;;;;;;4.68;1.35;;;;;;;-145.69;100.00;71577.50;5053762;28;20573;-78
2022/10/05 08:28:23;;;;;;;2.17;1.50;;;;;;;-145.69;100.00;71559.59;5064055;28;20198;-82
2022/10/05 08:30:58;;;;;;;3.05;1.63;;;;;;;-145.69;100.00;71545.66;5073228;28;20678;-81
2022/10/05 08:33:34;;;;;;;2.38;1.30;;;;;;;-145.69;100.00;71505.88;5073078;28;20209;-81
2022/10/05 08:36:07;;;;;;;1.55;1.23;;;;;;;-145.69;100.00;71468.06;5073621;28;20210;-82
2022/10/05 08:38:34;;;;;;;2.75;1.23;;;;;;;-145.69;100.00;71442.19;5073388;28;20214;-82
2022/10/05 08:41:33;;;;;;;4.95;1.65;;;;;;;-145.69;100.00;71436.22;5054557;28;20191;-82
2022/10/05 08:44:54;;;;;;;3.03;1.30;;;;;;;-145.69;100.00;71414.34;5054150;28;20226;-82
2022/10/05 08:47:38;;;;;;;2.63;1.15;;;;;;;-145.69;100.00;71402.41;5053111;28;20686;-82
2022/10/05 08:50:33;;;;;;;3.10;1.40;;;;;;;-145.69;100.00;71358.63;5051939;28;20494;-81
2022/10/05 08:53:20;;;;;;;3.33;1.38;;;;;;;-145.69;100.00;71326.78;5069796;28;20206;-82
2022/10/05 08:56:04;;;;;;;2.10;1.17;;;;;;;-145.69;100.00;71326.78;5026116;28;20634;-82
2022/10/05 08:58:54;;;;;;;1.40;1.30;;;;;;;-145.69;100.00;71328.78;5043052;28;20211;-82
2022/10/05 09:01:32;;;;;;;2.08;1.10;;;;;;;-145.69;100.00;71322.81;5053266;28;20235;-82
2022/10/05 09:04:35;;;;;;;1.55;1.00;;;;;;;-145.69;100.00;71296.94;5055814;28;20226;-83
2022/10/05 09:07:15;;;;;;;6.38;1.30;;;;;;;-145.69;100.00;71271.06;5048647;28;20213;-82
2022/10/05 09:10:14;;;;;;;1.77;1.17;;;;;;;-145.69;96.41;71259.13;5043754;28;20226;-82
2022/10/05 09:13:19;;;;;;;1.55;1.10;;;;;;;-145.69;97.96;71237.25;5036637;28;20195;-81
2022/10/05 09:16:22;;;;;;;3.17;1.50;;;;;;;-145.69;97.94;71213.38;5046333;28;20205;-81
2022/10/05 09:19:07;;;;;;;9.20;1.25;;;;;;;-145.69;100.00;71219.34;5040263;28;20203;-79
2022/10/05 09:21:41;;;;;;;1.08;0.98;;;;;;;-145.69;95.46;71203.41;5041864;28;20206;-80
2022/10/05 09:24:27;;;;;;;2.08;0.90;;;;;;;-145.69;95.47;71203.41;5045141;28;20203;-79
2022/10/05 09:27:10;;;;;;;6.00;1.10;;;;;;;-145.69;94.34;71191.47;5041627;28;20199;-77
2022/10/05 09:30:15;;;;;;;5.15;1.23;;;;;;;-145.69;91.86;71185.50;5042653;28;20682;-80
2022/10/05 09:33:13;;;;;;;1.58;1.20;;;;;;;-145.69;92.81;71179.53;5026312;28;20192;-80
2022/10/05 09:36:08;;;;;;;1.58;1.02;;;;;;;-145.69;90.74;71173.56;5012063;28;20195;-81
2022/10/05 09:38:55;;;;;;;1.23;1.08;;;;;;;-145.69;90.63;71165.59;5037421;28;20199;-80
2022/10/05 09:42:07;;;;;;;1.52;0.90;;;;;;;-145.69;89.96;71157.66;5050767;28;20203;-79
2022/10/05 09:45:05;;;;;;;1.08;0.90;;;;;;;-145.69;89.43;71127.81;4990854;28;20209;-79
2022/10/05 09:48:05;;;;;;;2.25;1.10;;;;;;;-145.69;91.01;71131.78;5048784;28;20683;-80
2022/10/05 09:51:18;;;;;;;1.35;0.98;;;;;;;-145.69;85.26;71127.81;5053498;28;20677;-80
2022/10/05 09:54:17;;;;;;;2.55;1.00;;;;;;;-145.69;88.38;71121.84;5006511;28;20198;-80
2022/10/05 09:57:34;;;;;;;2.78;1.20;;;;;;;-145.69;88.80;71105.91;5051853;28;20700;-79
2022/10/05 10:00:31;;;;;;;4.15;1.02;;;;;;;-145.69;86.24;71066.13;5024888;28;20202;-79
2022/10/05 10:03:41;;;;;;;1.45;0.90;;;;;;;-145.69;84.75;71072.09;5045285;28;20229;-80
2022/10/05 10:06:39;;;;;;;3.05;0.90;;;;;;;-145.69;84.81;71070.09;5010886;28;20214;-80
2022/10/05 10:09:28;;;;;;;1.90;1.05;;;;;;;-145.69;83.95;71056.16;5068712;28;20234;-79
2022/10/05 10:12:13;;;;;;;2.08;0.93;;;;;;;-145.69;80.83;71056.16;5072445;28;20202;-79
2022/10/05 10:15:27;;;;;;;1.33;1.10;;;;;;;-145.69;83.27;71028.31;5072392;28;20599;-79
2022/10/05 10:18:22;;;;;;;2.40;1.00;;;;;;;-145.69;83.19;71034.28;5054649;28;20239;-80
2022/10/05 10:21:22;;;;;;;4.05;0.90;;;;;;;-145.69;77.67;71020.34;5052553;28;20202;-79
2022/10/05 10:24:08;;;;;;;1.15;1.00;;;;;;;-145.69;81.77;71020.34;5039126;28;20661;-79
2022/10/05 10:27:04;;;;;;;1.52;0.93;;;;;;;-145.69;78.08;71018.38;5055667;28;20205;-80
2022/10/05 10:29:59;;;;;;;1.75;0.98;;;;;;;-145.69;80.06;70994.50;5055627;28;20462;-79
2022/10/05 10:32:58;;;;;;;1.73;0.95;;;;;;;-145.69;80.10;70984.53;5066203;28;20676;-80
2022/10/05 10:35:35;;;;;;;6.28;0.95;;;;;;;-145.69;75.85;70996.47;5073759;28;20210;-79
2022/10/05 10:38:30;;;;;;;2.03;1.00;;;;;;;-145.69;77.12;70990.50;5074075;28;20222;-80
2022/10/05 10:41:24;;;;;;;0.95;0.80;;;;;;;-145.69;78.75;70980.56;5055466;28;20664;-80
2022/10/05 10:44:26;;;;;;;2.55;0.77;;;;;;;-145.69;67.45;70966.63;5055549;28;20210;-79
2022/10/05 10:47:19;;;;;;;1.05;0.93;;;;;;;-145.69;69.61;70954.69;5040160;28;20199;-77
2022/10/05 10:50:11;;;;;;;1.50;0.82;;;;;;;-145.69;65.36;70956.69;5055557;28;20230;-77
2022/10/05 10:52:56;;;;;;;2.58;0.93;;;;;;;-145.69;66.96;70962.66;5052605;28;20693;-78
2022/10/05 10:55:41;;;;;;;0.82;0.63;;;;;;;-145.69;67.40;70956.69;5035359;28;20226;-77
2022/10/05 10:58:48;;;;;;;1.00;0.70;;;;;;;-145.69;63.04;70942.75;5034876;28;20228;-78
2022/10/05 11:01:29;;;;;;;1.52;0.70;;;;;;;-145.69;69.24;70938.78;5045540;28;20206;-79
2022/10/05 11:04:16;;;;;;;0.98;0.88;;;;;;;-145.69;73.37;70906.94;5075082;28;20205;-79
2022/10/05 11:07:05;;;;;;;0.98;0.80;;;;;;;-145.69;67.34;70906.94;5074790;28;20675;-78
2022/10/05 11:09:53;;;;;;;1.77;0.75;;;;;;;-145.69;67.26;70912.91;5074874;28;20202;-79
2022/10/05 11:13:07;;;;;;;1.23;0.85;;;;;;;-145.69;66.43;70904.97;5070946;28;20714;-79
2022/10/05 11:15:59;;;;;;;1.08;0.60;;;;;;;-145.69;58.66;70908.94;5018937;28;20231;-79
2022/10/05 11:18:41;;;;;;;1.27;0.80;;;;;;;-145.69;60.11;70908.94;5054732;28;20239;-80
2022/10/05 11:21:33;;;;;;;1.05;0.70;;;;;;;-145.69;60.71;70904.97;5054590;28;20674;-77
2022/10/05 11:24:43;;;;;;;0.63;0.55;;;;;;;-145.69;54.06;70895.00;5056738;28;22279;-79
2022/10/05 11:27:26;;;;;;;0.55;0.55;;;;;;;-145.69;57.97;70865.16;5074703;28;20220;-79
2022/10/05 11:30:25;;;;;;;1.00;0.70;;;;;;;-145.69;51.96;70875.13;5074696;28;20202;-78
2022/10/05 11:33:30;;;;;;;2.97;0.65;;;;;;;-145.69;53.22;70869.16;5051708;28;20301;-79
2022/10/05 11:36:36;;;;;;;1.73;0.90;;;;;;;-145.69;58.10;70859.19;5073225;28;20206;-81
2022/10/05 11:39:29;;;;;;;0.70;0.70;;;;;;;-145.69;52.01;70851.25;5048396;28;20280;-80
2022/10/05 11:42:39;;;;;;;1.17;0.60;;;;;;;-145.69;50.34;70839.31;5054512;28;20200;-81
2022/10/05 11:45:35;;;;;;;0.55;0.52;;;;;;;-145.69;51.00;70839.31;5021414;28;20215;-80
2022/10/05 11:48:27;;;;;;;1.02;0.40;;;;;;;-145.69;50.32;70831.34;5045247;28;20294;-80
2022/10/05 11:51:18;;;;;;;0.80;0.45;;;;;;;-145.69;53.04;70809.47;5034165;28;20238;-80
2022/10/05 11:53:56;;;;;;;2.17;0.60;;;;;;;-145.69;46.99;70831.34;5034210;28;20605;-78
2022/10/05 11:56:28;;;;;;;2.08;0.57;;;;;;;-145.69;49.38;70835.31;5034381;28;20200;-80
2022/10/05 11:59:04;;;;;;;1.58;0.63;;;;;;;-145.69;50.76;70811.44;5033951;28;20693;-80
2022/10/05 12:01:37;;;;;;;0.52;0.52;;;;;;;-145.69;48.49;70801.50;5058420;28;20561;-80
2022/10/05 12:04:15;;;;;;;2.38;0.68;;;;;;;-145.69;49.61;70797.53;5073803;28;20202;-80
2022/10/05 12:06:57;;;;;;;1.25;0.50;;;;;;;-145.69;46.99;70795.53;5073739;28;20209;-80
2022/10/05 12:10:12;;;;;;;0.50;0.50;;;;;;;-145.69;46.16;70781.59;5073903;28;20202;-79
2022/10/05 12:12:35;;;;;;;0.68;0.50;;;;;;;-145.69;50.32;70777.63;5073081;28;20202;-79
2022/10/05 12:15:13;;;;;;;0.90;0.70;;;;;;;-145.69;51.02;70749.78;5053957;28;20206;-80
2022/10/05 12:17:47;;;;;;;0.63;0.60;;;;;;;-145.69;46.42;70759.72;5053289;28;20234;-80
2022/10/05 12:20:20;;;;;;;1.45;0.65;;;;;;;-145.69;48.85;70729.88;5053513;28;20203;-79
2022/10/05 12:22:52;;;;;;;5.20;0.60;;;;;;;-145.69;46.98;70713.97;5053457;28;20547;-77
2022/10/05 12:25:27;;;;;;;1.42;0.50;;;;;;;-145.69;45.77;70700.03;5061011;28;20195;-79
2022/10/05 12:28:03;;;;;;;2.47;0.70;;;;;;;-145.69;46.10;70686.09;5073605;28;20205;-78
2022/10/05 12:30:51;;;;;;;0.98;0.45;;;;;;;-145.69;43.02;70686.09;5073250;28;20680;-79
2022/10/05 12:33:22;;;;;;;1.38;0.60;;;;;;;-145.69;44.23;70676.16;5073197;28;20198;-79
2022/10/05 12:35:52;;;;;;;2.00;0.68;;;;;;;-145.69;44.54;70668.19;5073293;28;20228;-80
2022/10/05 12:38:27;;;;;;;0.90;0.63;;;;;;;-145.69;43.87;70690.09;5057698;28;20747;-78
2022/10/05 12:41:04;;;;;;;0.88;0.80;;;;;;;-145.69;44.72;70682.13;5033501;28;20282;-79
2022/10/05 12:43:36;;;;;;;1.52;0.50;;;;;;;-145.69;44.40;70664.22;5032827;28;20204;-79
2022/10/05 12:46:16;;;;;;;2.20;0.40;;;;;;;-145.69;45.98;70630.41;5033267;28;20211;-79
2022/10/05 12:49:03;;;;;;;0.60;0.50;;;;;;;-145.69;42.83;70664.22;5040424;28;20196;-79
2022/10/05 12:51:41;;;;;;;1.27;0.65;;;;;;;-145.69;45.47;70626.41;5046618;28;20215;-80
2022/10/05 12:54:20;;;;;;;1.47;0.60;;;;;;;-145.69;44.41;70648.31;5031559;28;20434;-77
2022/10/05 12:56:54;;;;;;;1.27;0.57;;;;;;;-145.69;41.22;70658.25;5033280;28;20203;-80
2022/10/05 12:59:34;;;;;;;1.00;0.50;;;;;;;-145.69;46.40;70630.41;5033473;28;20233;-80
2022/10/05 13:02:16;;;;;;;1.20;0.70;;;;;;;-145.69;44.78;70614.47;5063461;28;20195;-81
2022/10/05 13:04:49;;;;;;;3.00;0.60;;;;;;;-145.69;42.92;70626.41;5072781;28;20206;-79
2022/10/05 13:07:34;;;;;;;2.65;0.60;;;;;;;-145.69;44.37;70626.41;5072549;28;20210;-79
2022/10/05 13:10:16;;;;;;;2.05;0.70;;;;;;;-145.69;45.01;70598.56;5072862;28;20195;-78
2022/10/05 13:12:56;;;;;;;2.30;0.55;;;;;;;-145.69;42.91;70594.59;5066887;28;20196;-79
2022/10/05 13:15:27;;;;;;;1.33;0.70;;;;;;;-145.69;45.78;70590.63;5053000;28;20207;-79